createdAt,value
2023-04-20T00:01:24.760Z,5.40
2023-04-20T00:03:51.951Z,5.40
2023-04-20T00:06:21.713Z,5.40
2023-04-20T00:08:48.854Z,5.40
2023-04-20T00:11:15.900Z,5.40
2023-04-20T00:13:43.044Z,5.40
2023-04-20T00:16:10.005Z,5.40
2023-04-20T00:18:36.833Z,5.40
2023-04-20T00:21:03.968Z,5.40
2023-04-20T00:23:30.846Z,5.50
2023-04-20T00:25:57.774Z,5.40
2023-04-20T00:28:24.652Z,5.50
2023-04-20T00:30:51.510Z,5.40
2023-04-20T00:33:18.411Z,5.40
2023-04-20T00:35:45.356Z,5.40
2023-04-20T00:38:12.176Z,5.50
2023-04-20T00:40:39.041Z,5.50
2023-04-20T00:43:13.297Z,5.50
2023-04-20T00:45:40.702Z,5.50
2023-04-20T00:48:07.862Z,5.50
2023-04-20T00:50:35.639Z,5.40
2023-04-20T00:53:03.165Z,5.30
2023-04-20T00:55:31.200Z,5.20
2023-04-20T00:57:58.903Z,5.20
2023-04-20T01:00:27.299Z,5.20
2023-04-20T01:02:54.360Z,5.20
2023-04-20T01:05:21.836Z,5.30
2023-04-20T01:07:49.491Z,5.30
2023-04-20T01:10:16.386Z,5.30
2023-04-20T01:12:43.295Z,5.30
2023-04-20T01:15:10.415Z,5.40
2023-04-20T01:17:40.941Z,5.40
2023-04-20T01:20:12.394Z,5.40
2023-04-20T01:22:54.279Z,5.40
2023-04-20T01:25:21.548Z,5.40
2023-04-20T01:27:48.712Z,5.40
2023-04-20T01:30:17.125Z,5.40
2023-04-20T01:32:45.149Z,5.40
2023-04-20T01:35:12.388Z,5.40
2023-04-20T01:37:40.822Z,5.40
2023-04-20T01:40:12.534Z,5.40
2023-04-20T01:42:39.577Z,5.40
2023-04-20T01:45:07.623Z,5.30
2023-04-20T01:47:34.992Z,5.30
2023-04-20T01:50:01.811Z,5.30
2023-04-20T01:52:28.629Z,5.30
2023-04-20T01:54:55.506Z,5.30
2023-04-20T01:57:22.365Z,5.30
2023-04-20T01:59:49.288Z,5.30
2023-04-20T02:02:16.438Z,5.40
2023-04-20T02:04:43.295Z,5.40
2023-04-20T02:07:10.184Z,5.50
2023-04-20T02:09:37.015Z,5.50
2023-04-20T02:12:04.322Z,5.50
2023-04-20T02:14:31.233Z,5.50
2023-04-20T02:16:59.192Z,5.60
2023-04-20T02:19:26.133Z,5.50
2023-04-20T02:21:52.993Z,5.60
2023-04-20T02:24:19.837Z,5.60
2023-04-20T02:26:46.654Z,5.60
2023-04-20T02:29:13.490Z,5.60
2023-04-20T02:31:40.596Z,5.60
2023-04-20T02:34:09.445Z,5.50
2023-04-20T02:36:36.790Z,5.50
2023-04-20T02:39:03.766Z,5.50
2023-04-20T02:41:30.683Z,5.50
2023-04-20T02:43:57.488Z,5.40
2023-04-20T02:46:24.422Z,5.40
2023-04-20T02:48:51.266Z,5.50
2023-04-20T02:51:18.134Z,5.50
2023-04-20T02:53:44.967Z,5.50
2023-04-20T02:56:11.910Z,5.60
2023-04-20T02:58:38.713Z,5.60
2023-04-20T03:01:05.717Z,5.60
2023-04-20T03:03:32.913Z,5.60
2023-04-20T03:05:59.969Z,5.60
2023-04-20T03:08:26.854Z,5.60
2023-04-20T03:10:53.682Z,5.60
2023-04-20T03:13:20.605Z,5.60
2023-04-20T03:15:47.456Z,5.60
2023-04-20T03:18:14.234Z,5.60
2023-04-20T03:20:41.398Z,5.60
2023-04-20T03:23:08.273Z,5.60
2023-04-20T03:25:35.268Z,5.60
2023-04-20T03:28:02.058Z,5.60
2023-04-20T03:30:29.345Z,5.60
2023-04-20T03:32:56.194Z,5.60
2023-04-20T03:35:23.053Z,5.60
2023-04-20T03:37:49.845Z,5.70
2023-04-20T03:40:16.825Z,5.70
2023-04-20T03:42:43.682Z,5.70
2023-04-20T03:45:11.177Z,5.70
2023-04-20T03:47:38.073Z,5.70
2023-04-20T03:50:06.308Z,5.60
2023-04-20T03:52:33.189Z,5.70
2023-04-20T03:55:00.037Z,5.70
2023-04-20T03:57:26.909Z,5.60
2023-04-20T03:59:53.785Z,5.60
2023-04-20T04:02:22.511Z,5.70
2023-04-20T04:04:49.752Z,5.60
2023-04-20T04:07:16.676Z,5.60
2023-04-20T04:09:43.547Z,5.60
2023-04-20T04:12:10.785Z,5.70
2023-04-20T04:14:37.717Z,5.60
2023-04-20T04:17:04.593Z,5.60
2023-04-20T04:19:31.464Z,5.60
2023-04-20T04:21:58.246Z,5.70
2023-04-20T04:24:26.774Z,5.60
2023-04-20T04:26:56.304Z,5.50
2023-04-20T04:29:25.720Z,5.40
2023-04-20T04:31:54.076Z,5.40
2023-04-20T04:34:21.081Z,5.40
2023-04-20T04:36:48.028Z,5.50
2023-04-20T04:39:15.102Z,5.60
2023-04-20T04:41:42.398Z,5.60
2023-04-20T04:44:09.452Z,5.50
2023-04-20T04:46:36.854Z,5.40
2023-04-20T04:49:04.307Z,5.50
2023-04-20T04:51:31.704Z,5.50
2023-04-20T04:53:58.481Z,5.40
2023-04-20T04:56:25.718Z,5.50
2023-04-20T04:58:52.544Z,5.60
2023-04-20T05:01:19.530Z,5.60
2023-04-20T05:03:46.730Z,5.50
2023-04-20T05:06:13.617Z,5.60
2023-04-20T05:08:41.122Z,5.60
2023-04-20T05:11:08.046Z,5.60
2023-04-20T05:13:34.922Z,5.50
2023-04-20T05:16:01.790Z,5.50
2023-04-20T05:18:28.715Z,5.60
2023-04-20T05:20:55.661Z,5.60
2023-04-20T05:23:22.460Z,5.60
2023-04-20T05:25:49.291Z,5.60
2023-04-20T05:28:16.130Z,5.50
2023-04-20T05:30:43.116Z,5.60
2023-04-20T05:33:10.088Z,5.50
2023-04-20T05:35:36.883Z,5.50
2023-04-20T05:38:06.277Z,5.40
2023-04-20T05:40:36.703Z,5.40
2023-04-20T05:43:03.567Z,5.50
2023-04-20T05:45:30.528Z,5.40
2023-04-20T05:47:58.429Z,5.50
2023-04-20T05:50:26.631Z,5.50
2023-04-20T05:52:54.142Z,5.50
2023-04-20T05:55:22.759Z,5.60
2023-04-20T05:57:52.119Z,5.60
2023-04-20T06:00:20.160Z,5.60
2023-04-20T06:02:47.320Z,5.80
2023-04-20T06:05:14.531Z,5.80
2023-04-20T06:07:41.523Z,5.90
2023-04-20T06:10:09.073Z,5.80
2023-04-20T06:12:35.957Z,5.80
2023-04-20T06:15:04.763Z,5.70
2023-04-20T06:17:31.667Z,5.70
2023-04-20T06:19:58.924Z,5.80
2023-04-20T06:22:25.873Z,5.90
2023-04-20T06:24:52.731Z,6.00
2023-04-20T06:27:19.533Z,6.00
2023-04-20T06:29:46.349Z,5.90
2023-04-20T06:32:13.167Z,5.90
2023-04-20T06:34:39.993Z,6.00
2023-04-20T06:37:07.617Z,5.90
2023-04-20T06:39:35.426Z,6.00
2023-04-20T06:42:02.734Z,6.00
2023-04-20T06:44:29.594Z,6.00
2023-04-20T06:46:56.564Z,6.00
2023-04-20T06:49:23.501Z,6.00
2023-04-20T06:51:50.321Z,5.90
2023-04-20T06:54:17.461Z,6.10
2023-04-20T06:56:44.254Z,6.20
2023-04-20T06:59:11.100Z,6.20
2023-04-20T07:01:38.114Z,6.20
2023-04-20T07:04:05.189Z,6.30
2023-04-20T07:06:32.082Z,6.20
2023-04-20T07:08:58.961Z,6.00
2023-04-20T07:11:25.804Z,6.10
2023-04-20T07:13:52.606Z,6.00
2023-04-20T07:16:19.496Z,5.80
2023-04-20T07:18:46.457Z,5.70
2023-04-20T07:21:15.059Z,5.80
2023-04-20T07:23:44.827Z,5.90
2023-04-20T07:26:12.083Z,6.00
2023-04-20T07:28:38.897Z,6.00
2023-04-20T07:31:05.953Z,5.90
2023-04-20T07:33:35.566Z,6.00
2023-04-20T07:36:02.351Z,6.10
2023-04-20T07:38:29.167Z,6.10
2023-04-20T07:40:55.970Z,6.00
2023-04-20T07:43:22.769Z,6.10
2023-04-20T07:45:49.589Z,6.10
2023-04-20T07:48:16.456Z,6.10
2023-04-20T07:50:43.439Z,6.10
2023-04-20T07:53:10.296Z,6.20
2023-04-20T07:55:37.201Z,6.20
2023-04-20T07:58:04.200Z,6.30
2023-04-20T08:00:31.108Z,6.20
2023-04-20T08:02:58.183Z,6.20
2023-04-20T08:05:25.340Z,6.30
2023-04-20T08:07:52.191Z,6.20
2023-04-20T08:10:19.536Z,6.20
2023-04-20T08:12:47.048Z,6.20
2023-04-20T08:15:14.510Z,6.30
2023-04-20T08:17:41.466Z,6.20
2023-04-20T08:20:10.677Z,6.30
2023-04-20T08:22:38.864Z,6.30
2023-04-20T08:25:06.244Z,6.20
2023-04-20T08:27:33.203Z,6.30
2023-04-20T08:30:00.785Z,6.30
2023-04-20T08:32:27.822Z,6.20
2023-04-20T08:34:56.166Z,6.20
2023-04-20T08:37:23.214Z,6.40
2023-04-20T08:39:50.362Z,6.40
2023-04-20T08:42:17.373Z,6.50
2023-04-20T08:44:44.190Z,6.70
2023-04-20T08:47:12.056Z,6.70
2023-04-20T08:49:39.839Z,6.70
2023-04-20T08:52:10.655Z,6.80
2023-04-20T08:54:42.950Z,6.80
2023-04-20T08:57:16.400Z,6.80
2023-04-20T08:59:43.266Z,6.70
2023-04-20T09:02:12.247Z,6.90
2023-04-20T09:04:41.086Z,6.90
2023-04-20T09:07:18.918Z,7.00
2023-04-20T09:10:00.042Z,7.10
2023-04-20T09:12:28.184Z,7.10
2023-04-20T09:14:55.962Z,7.20
2023-04-20T09:17:37.504Z,7.20
2023-04-20T09:20:08.560Z,7.20
2023-04-20T09:22:37.496Z,7.20
2023-04-20T09:25:18.001Z,7.30
2023-04-20T09:27:57.172Z,7.50
2023-04-20T09:30:24.338Z,7.50
2023-04-20T09:33:02.675Z,7.40
2023-04-20T09:35:29.638Z,7.50
2023-04-20T09:37:56.622Z,7.40
2023-04-20T09:40:26.251Z,7.30
2023-04-20T09:42:54.853Z,7.30
2023-04-20T09:45:21.739Z,7.40
2023-04-20T09:47:49.962Z,7.40
2023-04-20T09:50:26.673Z,7.30
2023-04-20T09:52:57.530Z,7.20
2023-04-20T09:55:26.583Z,7.20
2023-04-20T09:57:55.078Z,7.50
2023-04-20T10:00:22.708Z,7.40
2023-04-20T10:02:49.794Z,7.30
2023-04-20T10:05:16.965Z,7.30
2023-04-20T10:07:44.812Z,7.20
2023-04-20T10:10:16.375Z,7.00
2023-04-20T10:12:50.491Z,7.00
2023-04-20T10:15:18.564Z,7.00
2023-04-20T10:17:45.946Z,7.20
2023-04-20T10:20:28.442Z,7.30
2023-04-20T10:23:10.306Z,7.50
2023-04-20T10:25:37.474Z,7.70
2023-04-20T10:28:09.597Z,7.80
2023-04-20T10:30:38.084Z,7.60
2023-04-20T10:33:09.859Z,7.70
2023-04-20T10:35:51.444Z,7.80
2023-04-20T10:38:35.728Z,8.00
2023-04-20T10:41:13.008Z,8.10
2023-04-20T10:43:43.195Z,8.50
2023-04-20T10:46:22.193Z,8.80
2023-04-20T10:49:01.200Z,9.00
2023-04-20T10:51:28.642Z,9.00
2023-04-20T10:54:07.622Z,8.70
2023-04-20T10:56:53.554Z,8.60
2023-04-20T10:59:24.758Z,8.40
2023-04-20T11:01:52.504Z,8.40
2023-04-20T11:04:29.784Z,8.20
2023-04-20T11:07:07.235Z,8.10
2023-04-20T11:09:35.229Z,8.00
2023-04-20T11:12:05.272Z,7.90
2023-04-20T11:14:38.403Z,7.90
2023-04-20T11:17:06.612Z,8.00
2023-04-20T11:19:36.082Z,8.10
2023-04-20T11:22:04.607Z,8.60
2023-04-20T11:24:37.659Z,9.00
2023-04-20T11:27:04.898Z,9.30
2023-04-20T11:29:38.140Z,9.10
2023-04-20T11:32:10.405Z,9.00
2023-04-20T11:34:39.739Z,9.10
2023-04-20T11:37:11.602Z,9.20
2023-04-20T11:39:38.655Z,9.50
2023-04-20T11:42:06.187Z,9.50
2023-04-20T11:44:34.380Z,9.50
2023-04-20T11:47:01.803Z,9.50
2023-04-20T11:49:29.776Z,9.60
2023-04-20T11:51:56.607Z,9.90
2023-04-20T11:54:24.118Z,9.90
2023-04-20T11:56:51.483Z,10.00
2023-04-20T11:59:20.160Z,10.10
2023-04-20T12:01:47.860Z,10.00
2023-04-20T12:04:15.767Z,9.80
2023-04-20T12:06:43.133Z,9.60
2023-04-20T12:09:09.977Z,9.50
2023-04-20T12:11:36.844Z,9.50
2023-04-20T12:14:04.875Z,9.40
2023-04-20T12:16:31.784Z,9.30
2023-04-20T12:18:58.804Z,9.10
2023-04-20T12:21:25.677Z,9.10
2023-04-20T12:23:52.896Z,9.00
2023-04-20T12:26:19.796Z,9.10
2023-04-20T12:28:46.624Z,9.20
2023-04-20T12:31:13.570Z,9.40
2023-04-20T12:33:40.519Z,9.50
2023-04-20T12:36:07.573Z,9.70
2023-04-20T12:38:34.495Z,9.70
2023-04-20T12:41:01.359Z,9.80
2023-04-20T12:43:28.740Z,9.70
2023-04-20T12:45:55.522Z,9.50
2023-04-20T12:48:22.712Z,9.50
2023-04-20T12:50:50.736Z,9.60
2023-04-20T12:53:17.630Z,9.60
2023-04-20T12:55:44.499Z,9.50
2023-04-20T12:58:11.330Z,9.50
2023-04-20T13:00:38.270Z,9.50
2023-04-20T13:03:05.298Z,9.50
2023-04-20T13:05:32.494Z,9.50
2023-04-20T13:07:59.395Z,9.30
2023-04-20T13:10:26.306Z,9.40
2023-04-20T13:12:53.182Z,9.30
2023-04-20T13:15:31.953Z,9.20
2023-04-20T13:18:06.001Z,9.10
2023-04-20T13:20:32.977Z,9.10
2023-04-20T13:23:01.483Z,9.00
2023-04-20T13:25:32.590Z,8.90
2023-04-20T13:28:01.651Z,9.00
2023-04-20T13:30:28.661Z,9.20
2023-04-20T13:32:55.683Z,9.40
2023-04-20T13:35:23.758Z,9.70
2023-04-20T13:37:50.682Z,9.70
2023-04-20T13:40:17.476Z,10.00
2023-04-20T13:42:44.362Z,10.20
2023-04-20T13:45:12.004Z,10.50
2023-04-20T13:47:39.972Z,10.50
2023-04-20T13:50:07.714Z,10.50
2023-04-20T13:52:35.104Z,10.50
2023-04-20T13:55:01.926Z,10.50
2023-04-20T13:57:31.531Z,10.40
2023-04-20T14:00:01.541Z,10.70
2023-04-20T14:02:29.709Z,10.90
2023-04-20T14:04:56.741Z,11.10
2023-04-20T14:07:23.676Z,11.00
2023-04-20T14:09:50.967Z,11.00
2023-04-20T14:12:17.882Z,10.80
2023-04-20T14:14:44.735Z,10.60
2023-04-20T14:17:11.645Z,10.60
2023-04-20T14:19:38.499Z,10.60
2023-04-20T14:22:05.480Z,10.70
2023-04-20T14:24:32.693Z,10.70
2023-04-20T14:27:00.299Z,10.80
2023-04-20T14:29:27.193Z,10.80
2023-04-20T14:31:54.064Z,10.70
2023-04-20T14:34:20.986Z,10.70
2023-04-20T14:36:48.207Z,11.00
2023-04-20T14:39:15.051Z,11.10
2023-04-20T14:41:41.858Z,11.20
2023-04-20T14:44:08.731Z,11.20
2023-04-20T14:46:35.670Z,11.20
2023-04-20T14:49:03.062Z,11.30
2023-04-20T14:51:30.823Z,11.40
2023-04-20T14:53:57.831Z,11.20
2023-04-20T14:56:24.720Z,11.30
2023-04-20T14:58:52.358Z,11.30
2023-04-20T15:01:19.213Z,11.40
2023-04-20T15:03:46.260Z,11.30
2023-04-20T15:06:13.418Z,11.50
2023-04-20T15:08:40.310Z,11.50
2023-04-20T15:11:07.220Z,11.60
2023-04-20T15:13:34.414Z,11.70
2023-04-20T15:16:01.319Z,11.90
2023-04-20T15:18:28.159Z,11.80
2023-04-20T15:20:55.056Z,11.80
2023-04-20T15:23:22.087Z,11.80
2023-04-20T15:25:48.876Z,11.90
2023-04-20T15:28:16.566Z,11.80
2023-04-20T15:30:44.223Z,11.80
2023-04-20T15:33:11.399Z,11.80
2023-04-20T15:35:38.512Z,11.90
2023-04-20T15:38:05.561Z,12.00
2023-04-20T15:40:32.383Z,12.00
2023-04-20T15:42:59.261Z,11.90
2023-04-20T15:45:26.242Z,12.10
2023-04-20T15:47:53.281Z,12.20
2023-04-20T15:50:20.593Z,12.50
2023-04-20T15:52:49.678Z,12.60
2023-04-20T15:55:17.053Z,12.80
2023-04-20T15:57:44.683Z,12.40
2023-04-20T16:00:13.463Z,12.30
2023-04-20T16:02:40.637Z,12.40
2023-04-20T16:05:08.997Z,12.50
2023-04-20T16:07:35.917Z,12.60
2023-04-20T16:10:03.020Z,12.70
2023-04-20T16:12:29.959Z,12.60
2023-04-20T16:14:57.257Z,12.60
2023-04-20T16:17:24.341Z,12.40
2023-04-20T16:19:51.319Z,12.30
2023-04-20T16:22:18.243Z,12.30
2023-04-20T16:24:45.223Z,12.30
2023-04-20T16:27:12.070Z,12.10
2023-04-20T16:29:38.876Z,11.90
2023-04-20T16:32:06.725Z,11.60
2023-04-20T16:34:33.593Z,11.60
2023-04-20T16:37:00.708Z,11.70
2023-04-20T16:39:27.597Z,11.80
2023-04-20T16:41:54.586Z,11.90
2023-04-20T16:44:21.730Z,11.90
2023-04-20T16:46:51.646Z,11.80
2023-04-20T16:49:18.550Z,11.80
2023-04-20T16:51:45.404Z,11.70
2023-04-20T16:54:12.805Z,11.60
2023-04-20T16:56:40.625Z,11.50
2023-04-20T16:59:07.935Z,11.40
2023-04-20T17:01:35.082Z,11.20
2023-04-20T17:04:02.320Z,11.10
2023-04-20T17:06:29.440Z,11.20
2023-04-20T17:09:01.374Z,11.00
2023-04-20T17:11:28.302Z,11.10
2023-04-20T17:13:55.245Z,10.90
2023-04-20T17:16:22.093Z,10.80
2023-04-20T17:18:48.921Z,10.80
2023-04-20T17:21:15.773Z,10.70
2023-04-20T17:23:42.727Z,10.80
2023-04-20T17:26:09.617Z,10.70
2023-04-20T17:28:36.480Z,10.70
2023-04-20T17:31:03.329Z,10.50
2023-04-20T17:33:30.598Z,10.30
2023-04-20T17:35:58.191Z,10.30
2023-04-20T17:38:25.108Z,10.00
2023-04-20T17:40:52.273Z,10.10
2023-04-20T17:43:19.060Z,10.10
2023-04-20T17:45:50.033Z,10.10
2023-04-20T17:48:16.916Z,10.10
2023-04-20T17:50:47.205Z,10.30
2023-04-20T17:53:13.989Z,10.20
2023-04-20T17:55:40.938Z,10.10
2023-04-20T17:58:07.840Z,10.00
2023-04-20T18:00:34.755Z,10.00
2023-04-20T18:03:01.735Z,10.00
2023-04-20T18:05:28.674Z,9.90
2023-04-20T18:07:55.767Z,9.90
2023-04-20T18:10:22.596Z,9.80
2023-04-20T18:12:49.418Z,9.70
2023-04-20T18:15:16.255Z,9.60
2023-04-20T18:17:44.345Z,9.50
2023-04-20T18:20:11.784Z,9.50
2023-04-20T18:22:38.970Z,9.50
2023-04-20T18:25:06.407Z,9.50
2023-04-20T18:27:33.361Z,9.60
2023-04-20T18:30:00.320Z,9.60
2023-04-20T18:32:27.733Z,9.50
2023-04-20T18:34:55.025Z,9.60
2023-04-20T18:37:21.828Z,9.50
2023-04-20T18:39:48.670Z,9.40
2023-04-20T18:42:15.563Z,9.30
2023-04-20T18:44:42.683Z,9.30
2023-04-20T18:47:09.753Z,9.20
2023-04-20T18:49:36.836Z,9.00
2023-04-20T18:52:03.792Z,9.00
2023-04-20T18:54:30.630Z,9.00
2023-04-20T18:56:58.229Z,9.00
2023-04-20T18:59:25.589Z,9.00
2023-04-20T19:01:52.551Z,9.10
2023-04-20T19:04:20.253Z,9.10
2023-04-20T19:06:47.288Z,9.10
2023-04-20T19:09:14.473Z,9.10
2023-04-20T19:11:41.352Z,9.20
2023-04-20T19:14:08.151Z,9.20
2023-04-20T19:16:35.195Z,9.20
2023-04-20T19:19:03.791Z,9.10
2023-04-20T19:21:32.245Z,9.10
2023-04-20T19:23:59.217Z,9.00
2023-04-20T19:26:28.653Z,8.90
2023-04-20T19:28:57.608Z,8.80
2023-04-20T19:31:24.541Z,8.90
2023-04-20T19:33:51.379Z,8.90
2023-04-20T19:36:19.161Z,8.70
2023-04-20T19:38:46.263Z,8.80
2023-04-20T19:41:13.225Z,8.80
2023-04-20T19:43:40.143Z,8.70
2023-04-20T19:46:09.613Z,8.70
2023-04-20T19:48:36.788Z,8.60
2023-04-20T19:51:05.735Z,8.60
2023-04-20T19:53:33.285Z,8.70
2023-04-20T19:56:00.254Z,8.80
2023-04-20T19:58:27.186Z,8.70
2023-04-20T20:00:54.290Z,8.70
2023-04-20T20:03:21.365Z,8.60
2023-04-20T20:05:48.668Z,8.60
2023-04-20T20:08:16.511Z,8.50
2023-04-20T20:10:43.615Z,8.50
2023-04-20T20:13:10.631Z,8.40
2023-04-20T20:15:37.911Z,8.40
2023-04-20T20:18:05.946Z,8.40
2023-04-20T20:20:32.970Z,8.40
2023-04-20T20:23:00.374Z,8.40
2023-04-20T20:25:27.229Z,8.50
2023-04-20T20:27:54.441Z,8.50
2023-04-20T20:30:21.982Z,8.50
2023-04-20T20:32:48.824Z,8.40
2023-04-20T20:35:16.375Z,8.40
2023-04-20T20:37:45.224Z,8.40
2023-04-20T20:40:15.175Z,8.30
2023-04-20T20:42:42.483Z,8.30
2023-04-20T20:45:12.389Z,8.30
2023-04-20T20:47:41.315Z,8.30
2023-04-20T20:50:14.365Z,8.30
2023-04-20T20:52:41.826Z,8.30
2023-04-20T20:55:09.968Z,8.40
2023-04-20T20:57:36.838Z,8.40
2023-04-20T21:00:09.924Z,8.40
2023-04-20T21:02:37.631Z,8.40
2023-04-20T21:05:05.746Z,8.30
2023-04-20T21:07:32.868Z,8.20
2023-04-20T21:09:59.991Z,8.20
2023-04-20T21:12:26.834Z,8.30
2023-04-20T21:14:53.786Z,8.30
2023-04-20T21:17:20.698Z,8.30
2023-04-20T21:19:47.520Z,8.30
2023-04-20T21:22:14.439Z,8.30
2023-04-20T21:24:41.276Z,8.20
2023-04-20T21:27:08.144Z,8.30
2023-04-20T21:29:34.942Z,8.30
2023-04-20T21:32:01.829Z,8.20
2023-04-20T21:34:28.698Z,8.10
2023-04-20T21:36:55.565Z,8.10
2023-04-20T21:39:22.364Z,8.10
2023-04-20T21:41:49.135Z,8.00
2023-04-20T21:44:15.992Z,8.00
2023-04-20T21:46:42.850Z,8.00
2023-04-20T21:49:09.719Z,8.00
2023-04-20T21:51:36.517Z,7.80
2023-04-20T21:54:03.381Z,7.80
2023-04-20T21:56:30.516Z,7.80
2023-04-20T21:58:57.322Z,7.70
2023-04-20T22:01:24.234Z,7.70
2023-04-20T22:03:52.501Z,7.70
2023-04-20T22:06:19.595Z,7.70
2023-04-20T22:08:46.429Z,7.60
2023-04-20T22:11:13.906Z,7.60
2023-04-20T22:13:40.882Z,7.60
2023-04-20T22:16:08.206Z,7.60
2023-04-20T22:18:35.067Z,7.60
2023-04-20T22:21:01.885Z,7.80
2023-04-20T22:23:28.676Z,7.70
2023-04-20T22:25:55.649Z,7.70
2023-04-20T22:28:22.511Z,7.70
2023-04-20T22:30:49.413Z,7.60
2023-04-20T22:33:16.576Z,7.60
2023-04-20T22:35:43.380Z,7.50
2023-04-20T22:38:10.208Z,7.60
2023-04-20T22:40:36.992Z,7.60
2023-04-20T22:43:03.802Z,7.50
2023-04-20T22:45:30.569Z,7.40
2023-04-20T22:47:57.388Z,7.40
2023-04-20T22:50:24.516Z,7.40
2023-04-20T22:52:51.459Z,7.50
2023-04-20T22:55:18.294Z,7.60
2023-04-20T22:57:45.213Z,7.60
2023-04-20T23:00:13.896Z,7.60
2023-04-20T23:02:41.572Z,7.60
2023-04-20T23:05:09.566Z,7.60
2023-04-20T23:07:37.500Z,7.70
2023-04-20T23:10:05.886Z,7.70
2023-04-20T23:12:33.336Z,7.70
2023-04-20T23:15:02.690Z,7.70
2023-04-20T23:17:29.575Z,7.70
2023-04-20T23:19:56.659Z,7.70
2023-04-20T23:22:23.767Z,7.70
2023-04-20T23:24:50.845Z,7.70
2023-04-20T23:27:17.795Z,7.60
2023-04-20T23:29:45.158Z,7.70
2023-04-20T23:32:12.103Z,7.70
2023-04-20T23:34:39.014Z,7.70
2023-04-20T23:37:06.137Z,7.70
2023-04-20T23:39:37.562Z,7.70
2023-04-20T23:42:05.517Z,7.70
2023-04-20T23:44:32.426Z,7.60
2023-04-20T23:46:59.264Z,7.60
2023-04-20T23:49:26.038Z,7.60
2023-04-20T23:51:52.868Z,7.60
2023-04-20T23:54:19.778Z,7.70
2023-04-20T23:56:46.659Z,7.70
2023-04-20T23:59:13.545Z,7.60
